Time;durP1;ratioP1;P1;durP2;ratioP2;P2;SDS_P1;SDS_P2;PMS_P1;PMS_P2;Temp;Humidity;BMP_temperature;BMP_pressure;BME280_temperature;BME280_humidity;BME280_pressure;Samples;Min_cycle;Max_cycle;Signal;HPM_P1;HPM_P2
2023/02/22 00:00:26;;;;;;;238.90;43.67;;;8.20;99.90;;;;;;5042371;28;20496;-78
2023/02/22 00:02:58;;;;;;;277.58;43.97;;;8.20;99.90;;;;;;5040199;28;20029;-79
2023/02/22 00:05:26;;;;;;;299.80;46.17;;;8.10;99.90;;;;;;5016591;28;20112;-79
2023/02/22 00:07:52;;;;;;;215.32;42.53;;;8.20;99.90;;;;;;5039194;28;20072;-79
2023/02/22 00:10:20;;;;;;;212.95;43.05;;;8.20;99.90;;;;;;5037433;28;20065;-78
2023/02/22 00:12:54;;;;;;;209.02;42.65;;;8.20;99.90;;;;;;5020507;28;20083;-78
2023/02/22 00:15:22;;;;;;;187.30;41.15;;;8.20;99.90;;;;;;5047166;28;20084;-78
2023/02/22 00:17:48;;;;;;;186.27;43.60;;;8.20;99.90;;;;;;5043781;28;20024;-79
2023/02/22 00:20:18;;;;;;;182.82;42.83;;;8.20;99.90;;;;;;5049325;28;20021;-78
2023/02/22 00:22:45;;;;;;;195.93;42.38;;;8.20;99.90;;;;;;5037257;28;20035;-79
2023/02/22 00:25:12;;;;;;;187.60;42.42;;;8.20;99.90;;;;;;5040848;28;20146;-79
2023/02/22 00:27:37;;;;;;;186.63;44.10;;;8.20;99.90;;;;;;5029000;28;20905;-79
2023/02/22 00:30:05;;;;;;;213.40;46.20;;;8.20;99.90;;;;;;5018150;28;20046;-79
2023/02/22 00:32:31;;;;;;;203.52;44.33;;;8.20;99.90;;;;;;5008930;28;20038;-79
2023/02/22 00:34:56;;;;;;;245.85;45.28;;;8.20;99.90;;;;;;5012690;28;20060;-79
2023/02/22 00:37:22;;;;;;;187.25;43.22;;;8.20;99.90;;;;;;5009023;28;20058;-79
2023/02/22 00:39:49;;;;;;;204.57;47.25;;;8.20;99.90;;;;;;5015946;28;20061;-78
2023/02/22 00:42:16;;;;;;;196.10;44.88;;;8.20;99.90;;;;;;5018216;28;20030;-78
2023/02/22 00:44:42;;;;;;;251.43;45.75;;;8.20;99.90;;;;;;5007066;28;20030;-78
2023/02/22 00:47:08;;;;;;;232.55;46.83;;;8.20;99.90;;;;;;4996096;28;20190;-79
2023/02/22 00:49:34;;;;;;;238.50;43.55;;;8.20;99.90;;;;;;5020815;28;20037;-79
2023/02/22 00:52:00;;;;;;;231.00;44.42;;;8.20;99.90;;;;;;5012510;28;21325;-78
2023/02/22 00:54:26;;;;;;;207.60;46.03;;;8.20;99.90;;;;;;5008308;28;20040;-78
2023/02/22 00:56:52;;;;;;;207.75;44.97;;;8.20;99.90;;;;;;5014350;28;20100;-78
2023/02/22 00:59:17;;;;;;;210.98;44.33;;;8.20;99.90;;;;;;4995806;28;20038;-78
2023/02/22 01:01:43;;;;;;;230.18;44.30;;;8.20;99.90;;;;;;5012931;28;20048;-78
2023/02/22 01:04:08;;;;;;;304.20;45.38;;;8.20;99.90;;;;;;5015347;28;20044;-79
2023/02/22 01:06:34;;;;;;;240.05;45.13;;;8.20;99.90;;;;;;5005135;28;20029;-79
2023/02/22 01:09:03;;;;;;;227.80;44.67;;;8.20;99.90;;;;;;5010874;28;20041;-78
2023/02/22 01:11:29;;;;;;;231.60;43.88;;;8.20;99.90;;;;;;5006682;28;20038;-78
2023/02/22 01:13:56;;;;;;;304.63;44.95;;;8.10;99.90;;;;;;5020695;28;20030;-78
2023/02/22 01:16:22;;;;;;;277.08;44.05;;;8.10;99.90;;;;;;5013864;28;20030;-79
2023/02/22 01:18:47;;;;;;;243.20;43.50;;;8.10;99.90;;;;;;5004839;28;20904;-79
2023/02/22 01:21:13;;;;;;;272.58;44.00;;;8.10;99.90;;;;;;5015044;28;20029;-79
2023/02/22 01:23:38;;;;;;;200.10;40.30;;;8.10;99.90;;;;;;5015510;28;20042;-79
2023/02/22 01:26:04;;;;;;;200.02;40.90;;;8.10;99.90;;;;;;5016781;28;20030;-78
2023/02/22 01:28:31;;;;;;;254.27;43.55;;;8.10;99.90;;;;;;4993482;28;20054;-78
2023/02/22 01:30:57;;;;;;;247.75;43.08;;;8.10;99.90;;;;;;5013513;28;20032;-78
2023/02/22 01:33:22;;;;;;;220.50;42.47;;;8.10;99.90;;;;;;5006673;28;20034;-78
2023/02/22 01:35:49;;;;;;;218.68;40.67;;;8.10;99.90;;;;;;5009582;28;20035;-79
2023/02/22 01:38:15;;;;;;;220.02;41.17;;;8.10;99.90;;;;;;5010738;28;20085;-78
2023/02/22 01:40:42;;;;;;;223.02;42.47;;;8.10;99.90;;;;;;5021293;28;20042;-78
2023/02/22 01:43:29;;;;;;;219.50;42.47;;;8.10;99.90;;;;;;5017984;28;20117;-78
2023/02/22 01:46:17;;;;;;;211.50;41.00;;;8.10;99.90;;;;;;5019644;28;20117;-78
2023/02/22 01:48:59;;;;;;;221.35;40.78;;;8.10;99.90;;;;;;5017388;28;20466;-78
2023/02/22 01:51:29;;;;;;;214.25;40.30;;;8.10;99.90;;;;;;5023385;28;20073;-78
2023/02/22 01:54:00;;;;;;;186.63;39.53;;;8.10;99.90;;;;;;5014420;28;20467;-78
2023/02/22 01:56:29;;;;;;;197.88;38.28;;;8.10;99.90;;;;;;5019656;28;20030;-78
2023/02/22 01:59:01;;;;;;;197.55;38.22;;;8.10;99.90;;;;;;5020390;28;20071;-78
2023/02/22 02:01:28;;;;;;;191.43;39.60;;;8.10;99.90;;;;;;5013507;28;20503;-78
2023/02/22 02:03:57;;;;;;;199.43;37.60;;;8.10;99.90;;;;;;5018065;28;20036;-78
2023/02/22 02:06:23;;;;;;;203.60;40.38;;;8.10;99.90;;;;;;5012295;28;20030;-78
2023/02/22 02:09:12;;;;;;;189.88;39.67;;;8.10;99.90;;;;;;5012971;28;20037;-78
2023/02/22 02:11:40;;;;;;;203.00;38.33;;;8.10;99.90;;;;;;5011951;28;20481;-78
2023/02/22 02:14:08;;;;;;;210.05;39.13;;;8.10;99.90;;;;;;5018148;28;20191;-78
2023/02/22 02:16:44;;;;;;;186.52;37.35;;;8.00;99.90;;;;;;5018703;28;20620;-78
2023/02/22 02:19:40;;;;;;;208.77;38.70;;;8.00;99.90;;;;;;5014556;28;20025;-78
2023/02/22 02:22:27;;;;;;;238.57;37.13;;;8.00;99.90;;;;;;5019454;28;20094;-79
2023/02/22 02:25:38;;;;;;;188.80;37.92;;;8.00;99.90;;;;;;5019766;28;20036;-78
2023/02/22 02:28:40;;;;;;;178.57;37.90;;;8.00;99.90;;;;;;4983593;28;20058;-78
2023/02/22 02:31:43;;;;;;;188.43;37.55;;;8.00;99.90;;;;;;5012771;28;20053;-78
2023/02/22 02:34:25;;;;;;;186.90;37.08;;;8.00;99.90;;;;;;5008151;28;20033;-78
2023/02/22 02:36:56;;;;;;;189.07;38.10;;;8.00;99.90;;;;;;5018076;28;20620;-78
2023/02/22 02:39:45;;;;;;;202.00;36.67;;;8.00;99.90;;;;;;5021235;28;20092;-78
2023/02/22 02:42:15;;;;;;;189.60;35.70;;;8.00;99.90;;;;;;5013003;28;20038;-79
2023/02/22 02:44:48;;;;;;;173.93;34.90;;;8.00;99.90;;;;;;5009406;28;20033;-78
2023/02/22 02:47:19;;;;;;;201.80;37.40;;;7.90;99.90;;;;;;4993048;28;20065;-79
2023/02/22 02:49:55;;;;;;;216.38;37.03;;;8.00;99.90;;;;;;4987182;28;20096;-78
2023/02/22 02:52:24;;;;;;;200.80;36.00;;;7.90;99.90;;;;;;5009027;28;20409;-78
2023/02/22 02:54:50;;;;;;;238.65;36.83;;;7.90;99.90;;;;;;5013024;28;20104;-79
2023/02/22 02:57:16;;;;;;;230.98;37.97;;;7.90;99.90;;;;;;5012093;28;20133;-79
2023/02/22 02:59:42;;;;;;;210.68;35.60;;;7.90;99.90;;;;;;5016281;28;20113;-79
2023/02/22 03:02:07;;;;;;;241.07;38.83;;;7.90;99.90;;;;;;5015335;28;20026;-78
2023/02/22 03:04:59;;;;;;;196.93;37.47;;;7.90;99.90;;;;;;5009659;28;20034;-79
2023/02/22 03:07:59;;;;;;;195.27;36.15;;;7.90;99.90;;;;;;5014942;28;20029;-79
2023/02/22 03:11:03;;;;;;;196.32;36.00;;;7.90;99.90;;;;;;5009372;28;20048;-78
2023/02/22 03:13:48;;;;;;;180.07;34.63;;;7.90;99.90;;;;;;5017440;28;20505;-78
2023/02/22 03:16:50;;;;;;;187.88;34.40;;;7.90;99.90;;;;;;5006980;28;20101;-78
2023/02/22 03:19:34;;;;;;;205.00;36.85;;;7.90;99.90;;;;;;5009359;28;20050;-78
2023/02/22 03:22:13;;;;;;;221.75;37.75;;;7.90;99.90;;;;;;5010680;28;20057;-79
2023/02/22 03:25:13;;;;;;;192.90;36.20;;;7.80;99.90;;;;;;5013966;28;20069;-78
2023/02/22 03:28:01;;;;;;;202.25;34.33;;;7.80;99.90;;;;;;5008395;28;20042;-78
2023/02/22 03:30:36;;;;;;;187.77;35.97;;;7.80;99.90;;;;;;5032598;28;20046;-79
2023/02/22 03:33:09;;;;;;;182.57;35.80;;;7.80;99.90;;;;;;5029013;28;20117;-78
2023/02/22 03:35:46;;;;;;;210.25;37.13;;;7.80;99.90;;;;;;5027288;28;20044;-78
2023/02/22 03:38:16;;;;;;;197.35;36.20;;;7.80;99.90;;;;;;5044836;28;20033;-79
2023/02/22 03:40:45;;;;;;;208.48;36.38;;;7.80;99.90;;;;;;5030147;28;20039;-78
2023/02/22 03:43:17;;;;;;;187.88;34.92;;;7.80;99.90;;;;;;5033274;28;20062;-79
2023/02/22 03:45:45;;;;;;;192.18;35.30;;;7.80;99.90;;;;;;5030339;28;20356;-78
2023/02/22 03:48:19;;;;;;;215.65;35.83;;;7.80;99.90;;;;;;5028444;28;20088;-78
2023/02/22 03:50:47;;;;;;;207.02;35.60;;;7.80;99.90;;;;;;5023129;28;20052;-79
2023/02/22 03:53:12;;;;;;;195.32;36.75;;;7.70;99.90;;;;;;5044694;28;20104;-78
2023/02/22 03:55:38;;;;;;;205.02;36.88;;;7.80;99.90;;;;;;5042886;28;20116;-78
2023/02/22 03:58:08;;;;;;;201.15;36.95;;;7.80;99.90;;;;;;5029964;28;20033;-78
2023/02/22 04:00:34;;;;;;;236.38;36.90;;;7.80;99.90;;;;;;5028385;28;20022;-78
2023/02/22 04:03:00;;;;;;;198.98;36.83;;;7.80;99.90;;;;;;5036713;28;20048;-79
2023/02/22 04:05:26;;;;;;;212.38;35.97;;;7.80;99.90;;;;;;5032854;28;20033;-79
2023/02/22 04:07:52;;;;;;;193.32;35.17;;;7.80;99.90;;;;;;5037387;28;20497;-79
2023/02/22 04:10:18;;;;;;;169.73;35.47;;;7.80;99.90;;;;;;5019508;28;20033;-78
2023/02/22 04:12:43;;;;;;;192.13;35.92;;;7.70;99.90;;;;;;5035938;28;20136;-79
2023/02/22 04:15:14;;;;;;;188.57;36.13;;;7.80;99.90;;;;;;5032582;28;20029;-78
2023/02/22 04:17:39;;;;;;;184.88;36.08;;;7.70;99.90;;;;;;5031268;28;20377;-78
2023/02/22 04:20:06;;;;;;;195.43;36.28;;;7.70;99.90;;;;;;5027655;28;20121;-78
2023/02/22 04:22:31;;;;;;;189.43;35.47;;;7.70;99.90;;;;;;5027880;28;20133;-79
2023/02/22 04:24:57;;;;;;;211.85;36.15;;;7.70;99.90;;;;;;5035971;28;20163;-79
2023/02/22 04:27:22;;;;;;;182.27;34.30;;;7.70;99.90;;;;;;5037933;28;20025;-78
2023/02/22 04:29:48;;;;;;;199.38;36.63;;;7.70;99.90;;;;;;5023701;28;20557;-78
2023/02/22 04:32:14;;;;;;;223.98;35.70;;;7.70;99.90;;;;;;5015792;28;20069;-78
2023/02/22 04:34:40;;;;;;;216.90;36.20;;;7.70;99.90;;;;;;5009211;28;20088;-78
2023/02/22 04:37:06;;;;;;;195.65;35.85;;;7.70;99.90;;;;;;5007901;28;20413;-79
2023/02/22 04:39:32;;;;;;;220.15;35.50;;;7.70;99.90;;;;;;5013276;28;20030;-78
2023/02/22 04:41:57;;;;;;;185.73;36.33;;;7.70;99.90;;;;;;5009376;28;20038;-78
2023/02/22 04:44:23;;;;;;;207.13;37.58;;;7.70;99.90;;;;;;5011709;28;20042;-78
2023/02/22 04:46:48;;;;;;;260.45;37.75;;;7.70;99.90;;;;;;5010826;28;20036;-79
2023/02/22 04:49:14;;;;;;;204.23;37.25;;;7.70;99.90;;;;;;5024212;28;20088;-78
2023/02/22 04:51:40;;;;;;;213.18;36.00;;;7.70;99.90;;;;;;5013892;28;20044;-78
2023/02/22 04:54:06;;;;;;;201.55;34.58;;;7.70;99.90;;;;;;5015848;28;20471;-79
2023/02/22 04:56:31;;;;;;;171.07;35.55;;;7.70;99.90;;;;;;5011226;28;20041;-79
2023/02/22 04:58:56;;;;;;;167.88;34.80;;;7.70;99.90;;;;;;5014485;28;20850;-79
2023/02/22 05:01:22;;;;;;;199.88;35.55;;;7.70;99.90;;;;;;5014829;28;20033;-78
2023/02/22 05:03:48;;;;;;;188.18;36.05;;;7.70;99.90;;;;;;5017347;28;20026;-79
2023/02/22 05:06:13;;;;;;;190.95;35.75;;;7.70;99.90;;;;;;5011643;28;20061;-78
2023/02/22 05:08:38;;;;;;;188.77;35.38;;;7.70;99.90;;;;;;5015564;28;20081;-79
2023/02/22 05:11:05;;;;;;;187.25;34.47;;;7.70;99.90;;;;;;5012847;28;20525;-78
2023/02/22 05:13:30;;;;;;;185.25;35.47;;;7.70;99.90;;;;;;5013384;28;20316;-79
2023/02/22 05:15:56;;;;;;;183.13;34.58;;;7.70;99.90;;;;;;5013556;28;20030;-78
2023/02/22 05:18:21;;;;;;;185.32;35.47;;;7.70;99.90;;;;;;5021126;28;20034;-78
2023/02/22 05:20:47;;;;;;;187.02;35.22;;;7.60;99.90;;;;;;5012342;28;20052;-78
2023/02/22 05:23:12;;;;;;;216.73;35.17;;;7.70;99.90;;;;;;5018941;28;20046;-78
2023/02/22 05:25:38;;;;;;;236.45;37.60;;;7.70;99.90;;;;;;5017504;28;20061;-78
2023/02/22 05:28:10;;;;;;;200.13;35.60;;;7.70;99.90;;;;;;5010413;28;22112;-79
2023/02/22 05:30:38;;;;;;;186.65;36.25;;;7.70;99.90;;;;;;5014480;28;20053;-78
2023/02/22 05:33:04;;;;;;;180.75;36.72;;;7.70;99.90;;;;;;5017365;28;20544;-79
2023/02/22 05:35:29;;;;;;;211.35;38.00;;;7.70;99.90;;;;;;5017744;28;20026;-77
2023/02/22 05:37:56;;;;;;;170.95;35.85;;;7.70;99.90;;;;;;5018163;28;20030;-78
2023/02/22 05:40:25;;;;;;;215.93;36.63;;;7.70;99.90;;;;;;5014324;28;20053;-78
2023/02/22 05:42:51;;;;;;;201.05;36.58;;;7.70;99.90;;;;;;5010040;28;20108;-77
2023/02/22 05:45:19;;;;;;;214.98;38.30;;;7.70;99.90;;;;;;5014336;28;20030;-79
2023/02/22 05:47:45;;;;;;;217.45;37.70;;;7.70;99.90;;;;;;5009564;28;20034;-79
2023/02/22 05:50:11;;;;;;;191.05;38.65;;;7.70;99.90;;;;;;5020114;28;20830;-79
2023/02/22 05:52:37;;;;;;;199.77;36.85;;;7.70;99.90;;;;;;5011755;28;20037;-79
2023/02/22 05:55:04;;;;;;;199.52;37.65;;;7.70;99.90;;;;;;5009803;28;20034;-78
2023/02/22 05:57:29;;;;;;;189.98;36.55;;;7.70;99.90;;;;;;5007300;28;20036;-78
2023/02/22 05:59:55;;;;;;;187.68;36.67;;;7.70;99.90;;;;;;5023058;28;20041;-76
2023/02/22 06:02:21;;;;;;;182.55;36.30;;;7.70;99.90;;;;;;5010416;28;20492;-77
2023/02/22 06:04:47;;;;;;;176.68;36.33;;;7.70;99.90;;;;;;5012472;28;22038;-78
2023/02/22 06:07:13;;;;;;;214.63;39.25;;;7.80;99.90;;;;;;5011583;28;20101;-78
2023/02/22 06:09:39;;;;;;;193.63;38.05;;;7.70;99.90;;;;;;5007131;28;20046;-77
2023/02/22 06:12:05;;;;;;;180.93;36.85;;;7.80;99.90;;;;;;5009055;28;20057;-78
2023/02/22 06:14:30;;;;;;;195.38;36.67;;;7.80;99.90;;;;;;5015061;28;20037;-79
2023/02/22 06:16:56;;;;;;;196.98;38.05;;;7.80;99.90;;;;;;5008842;28;20034;-78
2023/02/22 06:19:23;;;;;;;184.63;35.88;;;7.80;99.90;;;;;;5010243;28;20030;-77
2023/02/22 06:21:50;;;;;;;179.60;36.03;;;7.80;99.90;;;;;;5014597;28;20108;-79
2023/02/22 06:24:16;;;;;;;183.35;37.63;;;7.80;99.90;;;;;;5015329;28;20429;-79
2023/02/22 06:26:41;;;;;;;176.93;35.38;;;7.70;99.90;;;;;;5001676;28;20049;-79
2023/02/22 06:29:07;;;;;;;179.70;37.20;;;7.70;99.90;;;;;;5022029;28;20049;-78
2023/02/22 06:31:33;;;;;;;181.38;36.42;;;7.80;99.90;;;;;;5027673;28;20030;-78
2023/02/22 06:33:58;;;;;;;186.50;36.10;;;7.80;99.90;;;;;;5040302;28;20025;-77
2023/02/22 06:36:24;;;;;;;180.85;37.17;;;7.80;99.90;;;;;;5030096;28;20406;-78
2023/02/22 06:38:49;;;;;;;177.63;35.63;;;7.80;99.90;;;;;;5034794;28;20035;-78
2023/02/22 06:41:15;;;;;;;166.30;35.22;;;7.80;99.90;;;;;;5026476;28;20037;-78
2023/02/22 06:43:40;;;;;;;176.80;35.00;;;7.70;99.90;;;;;;5029048;28;20030;-78
2023/02/22 06:46:10;;;;;;;171.52;35.90;;;7.80;99.90;;;;;;5025175;28;20068;-79
2023/02/22 06:48:37;;;;;;;164.32;35.15;;;7.80;99.90;;;;;;5040365;28;20025;-77
2023/02/22 06:51:03;;;;;;;162.85;35.33;;;7.80;99.90;;;;;;5024783;28;20486;-78
2023/02/22 06:53:28;;;;;;;166.40;34.42;;;7.80;99.90;;;;;;5038026;28;20030;-78
2023/02/22 06:55:54;;;;;;;158.65;33.85;;;7.80;99.90;;;;;;5031047;28;20092;-77
2023/02/22 06:58:19;;;;;;;148.55;33.78;;;7.80;99.90;;;;;;5022296;28;20478;-79
2023/02/22 07:00:45;;;;;;;153.35;34.03;;;7.80;99.90;;;;;;5029561;28;20477;-78
2023/02/22 07:03:12;;;;;;;147.57;33.60;;;7.80;99.90;;;;;;5026047;28;20132;-78
2023/02/22 07:05:38;;;;;;;159.48;33.83;;;7.90;99.90;;;;;;5027419;28;20080;-79
2023/02/22 07:08:05;;;;;;;150.52;33.28;;;7.90;99.90;;;;;;5029521;28;20033;-78
2023/02/22 07:10:33;;;;;;;131.93;31.77;;;7.90;99.90;;;;;;5025046;28;20371;-75
2023/02/22 07:12:59;;;;;;;165.73;33.17;;;7.90;99.90;;;;;;5016845;28;20029;-78
2023/02/22 07:15:26;;;;;;;142.20;33.25;;;7.90;99.90;;;;;;5024275;28;20033;-78
2023/02/22 07:17:52;;;;;;;160.55;33.17;;;7.90;99.90;;;;;;5034880;28;20466;-78
2023/02/22 07:20:19;;;;;;;138.27;30.40;;;7.90;99.90;;;;;;5025723;28;20056;-77
2023/02/22 07:22:45;;;;;;;151.43;33.60;;;7.90;99.90;;;;;;5023813;28;20045;-78
2023/02/22 07:25:11;;;;;;;133.02;29.88;;;7.80;99.90;;;;;;5014910;28;20032;-78
2023/02/22 07:27:38;;;;;;;145.25;32.75;;;7.80;99.90;;;;;;5017495;28;20032;-77
2023/02/22 07:30:05;;;;;;;137.38;31.98;;;7.80;99.90;;;;;;5026170;28;20129;-78
2023/02/22 07:32:31;;;;;;;144.38;31.27;;;7.80;99.90;;;;;;5020305;28;20025;-78
2023/02/22 07:34:56;;;;;;;145.18;33.28;;;7.80;99.90;;;;;;5032846;28;20029;-78
2023/02/22 07:37:22;;;;;;;142.10;31.88;;;7.80;99.90;;;;;;5024024;28;20393;-78
2023/02/22 07:39:47;;;;;;;148.40;34.47;;;7.80;99.90;;;;;;5040986;28;20037;-77
2023/02/22 07:42:12;;;;;;;149.60;32.08;;;7.80;99.90;;;;;;5035882;28;20071;-78
2023/02/22 07:44:38;;;;;;;143.45;32.88;;;7.90;99.90;;;;;;5035799;28;20366;-77
2023/02/22 07:47:04;;;;;;;133.23;31.60;;;7.90;99.90;;;;;;5039805;28;20096;-76
2023/02/22 07:49:29;;;;;;;150.00;31.80;;;8.00;99.90;;;;;;5046359;28;20120;-77
2023/02/22 07:51:54;;;;;;;149.25;32.08;;;8.10;99.90;;;;;;5029911;28;20038;-77
2023/02/22 07:54:20;;;;;;;137.95;30.52;;;8.10;99.90;;;;;;5042690;28;20035;-77
2023/02/22 07:56:47;;;;;;;131.27;29.83;;;8.10;99.90;;;;;;5034191;28;20029;-77
2023/02/22 07:59:14;;;;;;;138.85;30.38;;;8.10;99.90;;;;;;5031288;28;20067;-76
2023/02/22 08:01:39;;;;;;;138.40;33.47;;;8.20;99.90;;;;;;5029586;28;20104;-76
2023/02/22 08:04:06;;;;;;;123.88;30.92;;;8.20;99.90;;;;;;5028029;28;20453;-76
2023/02/22 08:06:31;;;;;;;127.18;31.40;;;8.20;99.90;;;;;;5025162;28;20041;-76
2023/02/22 08:08:57;;;;;;;108.80;28.80;;;8.30;99.90;;;;;;5029765;28;20493;-76
2023/02/22 08:11:23;;;;;;;115.10;30.15;;;8.40;99.90;;;;;;5018475;28;20367;-76
2023/02/22 08:13:49;;;;;;;118.07;29.80;;;8.50;99.90;;;;;;5028154;28;20112;-76
2023/02/22 08:16:14;;;;;;;96.65;26.08;;;8.60;99.90;;;;;;5032480;28;20164;-76
2023/02/22 08:18:41;;;;;;;99.65;27.95;;;8.60;99.90;;;;;;5014237;28;20044;-76
2023/02/22 08:21:07;;;;;;;100.40;27.38;;;8.80;99.90;;;;;;5019422;28;20117;-76
2023/02/22 08:23:32;;;;;;;94.43;27.95;;;8.80;99.90;;;;;;5027942;28;20069;-76
2023/02/22 08:26:07;;;;;;;92.20;26.25;;;8.80;99.90;;;;;;5028683;28;20036;-76
2023/02/22 08:28:33;;;;;;;78.95;24.70;;;8.80;99.90;;;;;;5023766;28;20092;-76
2023/02/22 08:30:58;;;;;;;79.53;24.83;;;8.60;99.90;;;;;;5031506;28;20056;-76
2023/02/22 08:33:24;;;;;;;72.50;24.40;;;8.50;99.90;;;;;;5031501;28;20104;-76
2023/02/22 08:35:50;;;;;;;59.70;22.52;;;8.60;99.90;;;;;;5017844;28;20037;-76
2023/02/22 08:38:21;;;;;;;62.65;22.67;;;8.60;99.90;;;;;;5029587;28;20080;-76
2023/02/22 08:40:47;;;;;;;61.60;23.13;;;8.70;99.90;;;;;;5042020;28;20029;-76
2023/02/22 08:43:12;;;;;;;57.70;23.00;;;8.80;99.90;;;;;;5019512;28;20030;-76
2023/02/22 08:45:38;;;;;;;50.63;22.30;;;8.70;99.90;;;;;;5045944;28;20037;-76
2023/02/22 08:48:04;;;;;;;49.20;20.50;;;8.70;99.90;;;;;;5049209;28;20056;-76
2023/02/22 08:50:34;;;;;;;49.53;20.73;;;8.80;99.90;;;;;;5051031;28;20037;-76
2023/02/22 08:53:01;;;;;;;47.10;20.90;;;8.80;99.90;;;;;;5035818;28;20021;-76
2023/02/22 08:55:31;;;;;;;47.00;20.40;;;8.80;99.90;;;;;;5039267;28;20315;-76
2023/02/22 08:57:58;;;;;;;43.03;19.52;;;8.90;99.90;;;;;;5026317;28;20034;-76
2023/02/22 09:00:24;;;;;;;40.33;20.02;;;9.00;99.90;;;;;;5027338;28;20573;-75
2023/02/22 09:02:52;;;;;;;43.10;18.75;;;9.10;99.90;;;;;;5030818;28;20033;-75
2023/02/22 09:05:19;;;;;;;37.90;18.58;;;9.00;99.80;;;;;;5030128;28;20117;-75
2023/02/22 09:07:44;;;;;;;36.45;16.60;;;9.00;99.90;;;;;;5040633;28;20386;-76
2023/02/22 09:10:18;;;;;;;38.47;19.02;;;9.00;99.60;;;;;;5034454;28;20041;-76
2023/02/22 09:12:44;;;;;;;36.50;17.80;;;9.10;99.80;;;;;;5047716;28;20488;-75
2023/02/22 09:15:11;;;;;;;37.05;17.77;;;9.10;99.40;;;;;;5026366;28;20030;-75
2023/02/22 09:17:36;;;;;;;34.13;16.45;;;9.20;99.30;;;;;;5032916;28;20029;-75
2023/02/22 09:20:04;;;;;;;36.10;17.98;;;9.30;99.30;;;;;;5026941;28;20371;-75
2023/02/22 09:22:30;;;;;;;35.85;17.65;;;9.50;99.40;;;;;;5036974;28;20055;-75
2023/02/22 09:24:55;;;;;;;34.42;17.48;;;9.40;98.70;;;;;;5039531;28;20033;-76
2023/02/22 09:27:21;;;;;;;34.80;17.02;;;9.30;98.10;;;;;;5035832;28;20144;-75
2023/02/22 09:29:47;;;;;;;30.17;16.05;;;9.50;98.80;;;;;;5039027;28;20052;-75
2023/02/22 09:32:16;;;;;;;36.80;18.02;;;9.60;98.90;;;;;;5029557;28;20021;-76
2023/02/22 09:34:44;;;;;;;32.05;17.33;;;9.60;98.60;;;;;;5004251;28;20116;-76
2023/02/22 09:37:10;;;;;;;33.05;17.13;;;9.50;98.20;;;;;;5039671;28;20038;-75
2023/02/22 09:39:36;;;;;;;30.67;16.15;;;9.50;98.00;;;;;;5035475;28;20032;-76
2023/02/22 09:42:17;;;;;;;34.70;17.42;;;9.70;98.40;;;;;;5031996;28;20116;-75
2023/02/22 09:44:53;;;;;;;33.35;16.30;;;9.90;98.00;;;;;;5040085;28;20049;-75
2023/02/22 09:47:31;;;;;;;31.83;17.42;;;10.00;97.80;;;;;;5038528;28;20111;-75
2023/02/22 09:49:58;;;;;;;32.15;17.40;;;10.10;97.80;;;;;;5028940;28;20037;-77
2023/02/22 09:52:29;;;;;;;31.02;17.20;;;10.10;97.10;;;;;;5041362;28;20040;-77
2023/02/22 09:55:24;;;;;;;29.30;16.40;;;10.10;96.70;;;;;;5054096;28;20051;-76
2023/02/22 09:57:54;;;;;;;28.20;17.00;;;10.00;96.20;;;;;;5012636;28;20045;-75
2023/02/22 10:00:28;;;;;;;27.67;17.48;;;9.90;96.30;;;;;;5038814;28;20112;-75
2023/02/22 10:03:12;;;;;;;31.27;17.38;;;10.00;96.70;;;;;;5050582;28;20029;-75
2023/02/22 10:05:41;;;;;;;31.60;17.70;;;9.90;96.00;;;;;;5041483;28;20133;-76
2023/02/22 10:08:17;;;;;;;30.83;17.63;;;10.10;96.70;;;;;;5044114;28;20029;-76
2023/02/22 10:10:45;;;;;;;32.60;18.05;;;10.10;95.80;;;;;;5033575;28;20036;-76
2023/02/22 10:13:31;;;;;;;30.50;16.88;;;10.20;95.90;;;;;;5051389;28;20738;-76
2023/02/22 10:16:16;;;;;;;30.00;16.83;;;10.20;95.50;;;;;;5029565;28;20088;-76
2023/02/22 10:19:09;;;;;;;29.48;16.80;;;10.30;96.10;;;;;;5040572;28;20424;-76
2023/02/22 10:22:08;;;;;;;28.05;16.15;;;10.40;96.10;;;;;;5037311;28;20032;-76
2023/02/22 10:24:38;;;;;;;28.25;16.85;;;10.50;95.60;;;;;;5024271;28;20057;-76
2023/02/22 10:27:17;;;;;;;29.17;16.83;;;10.40;95.20;;;;;;5040087;28;20017;-76
2023/02/22 10:29:47;;;;;;;28.13;17.20;;;10.50;95.30;;;;;;5022068;28;20541;-76
2023/02/22 10:32:42;;;;;;;27.25;16.00;;;10.50;94.90;;;;;;5010797;28;20032;-76
2023/02/22 10:35:23;;;;;;;30.55;17.10;;;10.60;95.00;;;;;;5017757;28;20026;-76
2023/02/22 10:37:53;;;;;;;;;;;10.80;95.00;;;;;;5014368;28;20029;-76
2023/02/22 10:40:30;;;;;;;28.02;15.75;;;10.90;94.80;;;;;;5030923;28;20370;-76
2023/02/22 10:42:57;;;;;;;30.20;16.77;;;11.00;94.50;;;;;;5010124;28;20064;-76
2023/02/22 10:45:27;;;;;;;28.75;16.23;;;10.90;94.30;;;;;;5017912;28;20459;-76
2023/02/22 10:47:57;;;;;;;24.40;14.95;;;10.80;93.80;;;;;;5017904;28;20113;-76
2023/02/22 10:50:24;;;;;;;25.77;15.73;;;10.80;94.10;;;;;;5026050;28;20042;-76
2023/02/22 10:52:49;;;;;;;25.08;15.05;;;10.80;94.00;;;;;;5015755;28;20038;-76
2023/02/22 10:55:16;;;;;;;28.00;15.77;;;10.80;94.40;;;;;;5014321;28;20374;-76
2023/02/22 10:57:44;;;;;;;23.83;14.73;;;10.90;94.40;;;;;;5023611;28;20561;-76
2023/02/22 11:00:36;;;;;;;26.60;14.90;;;10.80;93.90;;;;;;5011296;28;20046;-76
2023/02/22 11:03:19;;;;;;;24.65;13.95;;;10.80;93.10;;;;;;5005423;28;20391;-75
2023/02/22 11:05:45;;;;;;;27.23;14.43;;;10.50;92.80;;;;;;5011732;28;20041;-76
2023/02/22 11:08:19;;;;;;;25.98;14.27;;;10.50;93.60;;;;;;5023002;28;20038;-76
2023/02/22 11:10:45;;;;;;;22.30;12.02;;;10.40;93.10;;;;;;5017991;28;20032;-75
2023/02/22 11:13:27;;;;;;;22.00;11.55;;;10.40;92.90;;;;;;5022636;28;20034;-75
2023/02/22 11:15:54;;;;;;;21.35;11.40;;;10.40;93.00;;;;;;5012291;28;20469;-75
2023/02/22 11:18:37;;;;;;;20.33;11.73;;;10.30;93.00;;;;;;4992446;28;20045;-75
2023/02/22 11:21:10;;;;;;;23.88;12.57;;;10.30;92.80;;;;;;5009380;28;20037;-75
2023/02/22 11:23:38;;;;;;;25.23;11.27;;;10.10;92.10;;;;;;5004487;28;20037;-75
2023/02/22 11:26:13;;;;;;;22.08;12.55;;;10.10;92.60;;;;;;5015046;28;20040;-75
2023/02/22 11:28:48;;;;;;;22.30;11.25;;;10.30;93.20;;;;;;5019177;28;20417;-76
2023/02/22 11:31:23;;;;;;;24.23;11.93;;;10.30;93.00;;;;;;5014816;28;20037;-75
2023/02/22 11:34:02;;;;;;;21.30;11.50;;;10.40;92.40;;;;;;5019372;28;20026;-75
2023/02/22 11:36:36;;;;;;;20.15;11.15;;;10.50;92.80;;;;;;5020952;28;20053;-75
2023/02/22 11:39:04;;;;;;;23.30;12.40;;;10.50;92.60;;;;;;5023531;28;20041;-75
2023/02/22 11:41:33;;;;;;;22.98;11.68;;;10.60;92.90;;;;;;5025806;28;20037;-75
2023/02/22 11:44:30;;;;;;;23.40;12.25;;;10.60;92.70;;;;;;5009617;28;20026;-75
2023/02/22 11:47:00;;;;;;;20.33;11.10;;;10.60;92.70;;;;;;5012389;28;20122;-75
2023/02/22 11:49:38;;;;;;;23.02;11.77;;;10.60;92.60;;;;;;5011711;28;20037;-75
2023/02/22 11:52:27;;;;;;;20.55;11.45;;;10.80;92.90;;;;;;5007520;28;20100;-75
2023/02/22 11:55:00;;;;;;;21.27;10.48;;;11.00;92.90;;;;;;5017768;28;20029;-75
2023/02/22 11:57:38;;;;;;;18.92;10.80;;;11.00;92.20;;;;;;4995670;28;20047;-76
2023/02/22 12:00:23;;;;;;;18.52;10.32;;;11.00;91.80;;;;;;5012337;28;20038;-75
2023/02/22 12:03:21;;;;;;;16.80;10.07;;;11.00;91.20;;;;;;5009830;28;20037;-75
2023/02/22 12:05:59;;;;;;;16.33;9.52;;;11.00;90.60;;;;;;5012224;28;20034;-76
2023/02/22 12:08:45;;;;;;;18.10;9.43;;;11.10;90.40;;;;;;5011736;28;20044;-75
2023/02/22 12:11:29;;;;;;;16.98;8.57;;;11.30;90.70;;;;;;5020532;28;20033;-75
2023/02/22 12:14:24;;;;;;;17.45;9.32;;;11.40;90.70;;;;;;5003488;28;20030;-76
2023/02/22 12:17:22;;;;;;;18.10;8.35;;;11.50;89.40;;;;;;5022787;28;20061;-76
2023/02/22 12:20:30;;;;;;;17.13;8.98;;;11.60;89.50;;;;;;4999127;28;20410;-75
2023/02/22 12:23:13;;;;;;;13.65;8.02;;;11.80;88.70;;;;;;5011500;28;20021;-75
2023/02/22 12:26:03;;;;;;;14.50;7.85;;;11.80;88.00;;;;;;5018014;28;20104;-76
2023/02/22 12:28:37;;;;;;;16.55;8.32;;;11.80;88.20;;;;;;5014019;28;20038;-75
2023/02/22 12:31:15;;;;;;;14.55;7.85;;;11.90;88.60;;;;;;5017167;28;20033;-75
2023/02/22 12:34:11;;;;;;;15.85;8.18;;;11.90;87.90;;;;;;5009445;28;20034;-75
2023/02/22 12:36:45;;;;;;;16.02;7.85;;;12.10;88.40;;;;;;5021594;28;20394;-75
2023/02/22 12:39:32;;;;;;;14.90;7.60;;;12.10;87.60;;;;;;5013226;28;20045;-75
2023/02/22 12:42:02;;;;;;;14.00;6.85;;;12.10;87.60;;;;;;5021323;28;20470;-75
2023/02/22 12:44:35;;;;;;;14.18;7.50;;;12.20;88.10;;;;;;5007347;28;20042;-75
2023/02/22 12:47:04;;;;;;;14.32;6.75;;;12.30;87.20;;;;;;5009813;28;20038;-76